createdAt,value
2018-11-20T06:35:56.776Z,20.09
2018-11-20T06:36:56.747Z,20.25
2018-11-20T06:37:56.763Z,20.09
2018-11-20T06:38:56.718Z,20.18
2018-11-20T06:40:56.713Z,20.20
2018-11-20T06:41:56.686Z,20.25
2018-11-20T06:42:56.680Z,20.28
2018-11-20T06:43:56.916Z,20.23
2018-11-20T06:44:56.657Z,20.20
2018-11-20T06:45:56.652Z,20.23
2018-11-20T06:46:56.884Z,20.25
2018-11-20T06:47:56.616Z,20.23
2018-11-20T06:48:56.607Z,20.18
2018-11-20T06:49:56.592Z,20.20
2018-11-20T06:50:56.834Z,20.20
2018-11-20T06:51:56.588Z,20.20
2018-11-20T06:52:56.574Z,20.24
2018-11-20T06:53:56.554Z,20.15
2018-11-20T06:54:56.544Z,20.23
2018-11-20T06:55:56.535Z,20.21
2018-11-20T06:56:56.518Z,20.20
2018-11-20T06:57:57.011Z,20.21
2018-11-20T06:58:56.495Z,20.21
2018-11-20T06:59:56.487Z,20.18
2018-11-20T07:00:56.474Z,20.30
2018-11-20T07:01:56.464Z,20.30
2018-11-20T07:02:56.468Z,20.27
2018-11-20T07:03:56.686Z,20.28
2018-11-20T07:04:56.686Z,20.28
2018-11-20T07:05:56.427Z,20.25
2018-11-20T07:06:56.421Z,20.27
2018-11-20T07:07:56.804Z,20.34
2018-11-20T07:08:56.558Z,20.38
2018-11-20T07:09:56.389Z,20.42
2018-11-20T07:10:56.356Z,20.31
2018-11-20T07:11:56.359Z,20.48
2018-11-20T07:12:56.355Z,20.43
2018-11-20T07:13:56.325Z,20.45
2018-11-20T07:14:56.597Z,20.43
2018-11-20T07:15:57.134Z,20.42
2018-11-20T07:16:56.300Z,20.41
2018-11-20T07:17:57.397Z,20.34
2018-11-20T07:18:56.287Z,20.48
2018-11-20T07:19:56.315Z,20.52
2018-11-20T07:20:56.273Z,20.49
2018-11-20T07:21:56.238Z,20.55
2018-11-20T07:22:56.233Z,20.58
2018-11-20T07:23:56.471Z,20.52
2018-11-20T07:24:56.208Z,20.48
2018-11-20T07:25:56.731Z,20.48
2018-11-20T07:26:56.185Z,20.50
2018-11-20T07:27:56.173Z,20.42
2018-11-20T07:28:56.160Z,20.53
2018-11-20T07:29:56.160Z,20.46
2018-11-20T07:30:56.331Z,20.58
2018-11-20T07:31:56.175Z,20.50
2018-11-20T07:32:56.123Z,20.52
2018-11-20T07:33:56.150Z,20.58
2018-11-20T07:34:56.368Z,20.57
2018-11-20T07:35:56.084Z,20.57
2018-11-20T07:36:56.297Z,20.55
2018-11-20T07:37:56.072Z,20.57
2018-11-20T07:38:56.305Z,20.60
2018-11-20T07:39:56.154Z,20.65
2018-11-20T07:40:57.931Z,20.61
2018-11-20T07:41:56.022Z,20.60
2018-11-20T07:42:56.018Z,20.60
2018-11-20T07:43:56.153Z,20.55
2018-11-20T07:44:56.249Z,20.60
2018-11-20T07:45:55.984Z,20.63
2018-11-20T07:46:55.971Z,20.60
2018-11-20T07:47:56.193Z,20.61
2018-11-20T07:49:00.465Z,20.60
2018-11-20T07:49:55.922Z,20.64
2018-11-20T07:50:56.170Z,20.68
2018-11-20T07:51:55.916Z,20.64
2018-11-20T07:52:55.906Z,20.70
2018-11-20T07:53:55.890Z,20.63
2018-11-20T07:54:55.872Z,20.61
2018-11-20T07:55:55.976Z,20.64
2018-11-20T07:56:55.863Z,20.67
2018-11-20T07:57:55.832Z,20.63
2018-11-20T07:58:55.831Z,20.67
2018-11-20T07:59:55.819Z,20.75
2018-11-20T08:00:56.062Z,20.71
2018-11-20T08:01:55.794Z,20.71
2018-11-20T08:02:55.788Z,20.70
2018-11-20T08:03:56.015Z,20.65
2018-11-20T08:04:56.015Z,20.68
2018-11-20T08:05:55.748Z,20.76
2018-11-20T08:06:55.750Z,20.70
2018-11-20T08:07:55.727Z,20.65
2018-11-20T08:08:55.978Z,20.63
2018-11-20T08:09:55.951Z,20.70
2018-11-20T08:10:55.719Z,20.73
2018-11-20T08:11:55.689Z,20.82
2018-11-20T08:13:05.097Z,20.76
2018-11-20T08:14:17.651Z,20.71
2018-11-20T08:15:17.652Z,20.80
2018-11-20T08:16:17.611Z,20.67
2018-11-20T08:17:17.844Z,20.75
2018-11-20T08:18:17.611Z,20.70
2018-11-20T08:19:17.837Z,20.82
2018-11-20T08:20:17.602Z,20.79
2018-11-20T08:21:17.549Z,20.71
2018-11-20T08:22:17.538Z,20.76
2018-11-20T08:23:17.779Z,20.82
2018-11-20T08:24:17.776Z,20.79
2018-11-20T08:25:18.090Z,20.85
2018-11-20T08:26:17.744Z,20.76
2018-11-20T08:27:17.748Z,20.80
2018-11-20T08:28:17.475Z,20.82
2018-11-20T08:29:17.470Z,20.82
2018-11-20T08:30:17.873Z,20.78
2018-11-20T08:31:19.087Z,20.80
2018-11-20T08:32:17.679Z,20.76
2018-11-20T08:33:17.424Z,20.92
2018-11-20T08:34:17.521Z,20.79
2018-11-20T08:35:17.842Z,20.80
2018-11-20T08:36:17.387Z,20.80
2018-11-20T08:37:17.477Z,20.82
2018-11-20T08:38:17.412Z,20.82
2018-11-20T08:39:17.346Z,20.88
2018-11-20T08:40:17.342Z,20.85
2018-11-20T08:41:17.340Z,20.82
2018-11-20T08:42:17.421Z,20.80
2018-11-20T08:43:17.567Z,20.86
2018-11-20T08:44:17.326Z,20.94
2018-11-20T08:45:17.286Z,20.88
2018-11-20T08:46:17.268Z,20.83
2018-11-20T08:47:18.600Z,20.86
2018-11-20T08:48:17.324Z,20.90
2018-11-20T08:49:17.253Z,20.92
2018-11-20T08:50:17.477Z,20.94
2018-11-20T08:51:17.231Z,20.95
2018-11-20T08:52:17.207Z,20.92
2018-11-20T08:53:17.210Z,20.89
2018-11-20T08:54:19.584Z,20.89
2018-11-20T08:55:17.184Z,20.92
2018-11-20T08:56:17.188Z,20.94
2018-11-20T08:57:17.144Z,21.00
2018-11-20T08:58:17.161Z,20.94
2018-11-20T08:59:17.144Z,20.90
2018-11-20T09:00:17.115Z,20.90
2018-11-20T09:01:17.141Z,20.97
2018-11-20T09:02:17.450Z,20.88
2018-11-20T09:03:17.230Z,20.95
2018-11-20T09:04:17.077Z,21.00
2018-11-20T09:05:17.083Z,20.95
2018-11-20T09:06:17.331Z,20.94
2018-11-20T09:07:17.134Z,20.94
2018-11-20T09:08:17.061Z,21.04
2018-11-20T09:09:17.081Z,21.05
2018-11-20T09:10:17.006Z,21.04
2018-11-20T09:11:17.014Z,21.05
2018-11-20T09:12:16.975Z,21.01
2018-11-20T09:13:16.973Z,21.05
2018-11-20T09:14:17.024Z,21.08
2018-11-20T09:15:16.942Z,21.04
2018-11-20T09:16:16.932Z,21.10
2018-11-20T09:17:16.967Z,20.97
2018-11-20T09:18:17.072Z,21.00
2018-11-20T09:19:17.157Z,21.10
2018-11-20T09:20:17.009Z,21.10
2018-11-20T09:21:16.969Z,21.05
2018-11-20T09:22:16.875Z,21.00
2018-11-20T09:23:16.849Z,21.04
2018-11-20T09:24:17.105Z,21.10
2018-11-20T09:25:16.843Z,21.04
2018-11-20T09:26:16.819Z,21.05
2018-11-20T09:27:16.803Z,20.94
2018-11-20T09:28:16.927Z,21.08
2018-11-20T09:29:16.787Z,21.07
2018-11-20T09:30:17.034Z,21.08
2018-11-20T09:31:16.804Z,21.03
2018-11-20T09:32:16.751Z,21.05
2018-11-20T09:33:16.759Z,20.98
2018-11-20T09:34:16.819Z,21.19
2018-11-20T09:35:16.889Z,21.03
2018-11-20T09:36:16.698Z,21.05
2018-11-20T09:37:16.701Z,21.10
2018-11-20T09:38:16.677Z,21.12
2018-11-20T09:39:16.686Z,21.15
2018-11-20T09:40:16.655Z,21.07
2018-11-20T09:41:16.662Z,21.17
2018-11-20T09:42:17.645Z,21.21
2018-11-20T09:43:16.868Z,21.13
2018-11-20T09:44:16.874Z,21.08
2018-11-20T09:45:16.647Z,21.20
2018-11-20T09:46:17.277Z,21.23
2018-11-20T09:47:16.576Z,21.13
2018-11-20T09:48:16.574Z,21.13
2018-11-20T09:49:16.550Z,21.17
2018-11-20T09:50:16.821Z,21.20
2018-11-20T09:51:16.789Z,21.23
2018-11-20T09:52:16.542Z,21.19
2018-11-20T09:53:16.517Z,21.15
2018-11-20T09:54:16.531Z,21.24
2018-11-20T09:55:16.496Z,21.20
2018-11-20T09:56:16.487Z,21.24
2018-11-20T09:57:16.483Z,21.15
2018-11-20T09:58:16.459Z,21.29
2018-11-20T09:59:16.485Z,21.34
2018-11-20T10:00:16.448Z,21.13
2018-11-20T10:01:16.424Z,21.19
2018-11-20T10:02:16.405Z,21.23
2018-11-20T10:03:16.435Z,21.20
2018-11-20T10:04:16.391Z,21.20
2018-11-20T10:05:16.400Z,21.17
2018-11-20T10:06:16.615Z,21.26
2018-11-20T10:07:16.402Z,21.30
2018-11-20T10:08:16.604Z,21.19
2018-11-20T10:09:16.362Z,21.23
2018-11-20T10:10:16.329Z,21.26
2018-11-20T10:11:16.338Z,21.27
2018-11-20T10:12:17.302Z,21.27
2018-11-20T10:13:16.312Z,21.30
2018-11-20T10:14:16.486Z,21.29
2018-11-20T10:15:16.327Z,21.27
2018-11-20T10:16:16.250Z,21.30
2018-11-20T10:17:16.264Z,21.26
2018-11-20T10:18:16.235Z,21.29
2018-11-20T10:19:40.493Z,21.27
2018-11-20T10:20:39.833Z,21.24
2018-11-20T10:21:40.166Z,21.30
2018-11-20T10:22:39.552Z,21.30
2018-11-20T10:23:39.548Z,21.23
2018-11-20T10:24:39.662Z,21.27
2018-11-20T10:25:39.897Z,21.23
2018-11-20T10:26:39.752Z,21.17
2018-11-20T10:27:39.536Z,21.20
2018-11-20T10:28:39.485Z,21.21
2018-11-20T10:29:39.478Z,21.32
2018-11-20T10:30:39.462Z,21.19
2018-11-20T10:31:39.468Z,21.32
2018-11-20T10:32:39.435Z,21.26
2018-11-20T10:33:39.559Z,21.23
2018-11-20T10:34:39.449Z,21.19
2018-11-20T10:35:39.497Z,21.26
2018-11-20T10:36:39.391Z,21.26
2018-11-20T10:37:46.240Z,21.26
2018-11-20T10:39:01.895Z,21.20
2018-11-20T10:40:02.136Z,21.27
2018-11-20T10:41:01.617Z,21.17
2018-11-20T10:42:01.606Z,21.20
2018-11-20T10:43:01.766Z,21.21
2018-11-20T10:44:02.055Z,21.30
2018-11-20T10:45:01.586Z,21.21
2018-11-20T10:46:01.853Z,21.21
2018-11-20T10:47:01.549Z,21.24
2018-11-20T10:48:01.781Z,21.20
2018-11-20T10:49:01.532Z,21.26
2018-11-20T10:50:03.682Z,21.15
2018-11-20T10:51:01.542Z,21.23
2018-11-20T10:52:01.496Z,21.30
2018-11-20T10:53:01.491Z,21.26
2018-11-20T10:54:01.472Z,21.27
2018-11-20T10:55:01.718Z,21.27
2018-11-20T10:56:01.452Z,21.26
2018-11-20T10:57:01.435Z,21.26
2018-11-20T10:58:01.635Z,21.27
2018-11-20T10:59:01.422Z,21.35
2018-11-20T11:00:01.421Z,21.30
2018-11-20T11:01:01.653Z,21.26
2018-11-20T11:02:01.789Z,21.32
2018-11-20T11:03:01.444Z,21.39
2018-11-20T11:04:01.516Z,21.34
2018-11-20T11:05:01.642Z,21.39
2018-11-20T11:06:01.682Z,21.36
2018-11-20T11:07:01.748Z,21.39
2018-11-20T11:08:01.738Z,21.38
2018-11-20T11:09:01.717Z,21.42
2018-11-20T11:10:01.498Z,21.35
2018-11-20T11:11:01.591Z,21.46
2018-11-20T11:12:01.360Z,21.39
2018-11-20T11:13:01.329Z,21.46
2018-11-20T11:14:01.244Z,21.42
2018-11-20T11:15:01.503Z,21.42
2018-11-20T11:16:01.226Z,21.35
2018-11-20T11:17:01.216Z,21.45
2018-11-20T11:18:01.307Z,21.39
2018-11-20T11:19:01.204Z,21.36
2018-11-20T11:20:01.411Z,21.36
2018-11-20T11:21:01.498Z,21.36
2018-11-20T11:22:01.185Z,21.46
2018-11-20T11:23:01.150Z,21.42
2018-11-20T11:24:01.139Z,21.44
2018-11-20T11:25:01.463Z,21.42
2018-11-20T11:26:01.404Z,21.36
2018-11-20T11:27:01.618Z,21.41
2018-11-20T11:28:01.355Z,21.50
2018-11-20T11:29:01.360Z,21.54
2018-11-20T11:30:01.087Z,21.50
2018-11-20T11:31:01.095Z,21.59
2018-11-20T11:32:01.092Z,21.54
2018-11-20T11:33:01.049Z,21.51
2018-11-20T11:34:01.050Z,21.51
2018-11-20T11:35:01.018Z,21.56
2018-11-20T11:36:01.027Z,21.51
2018-11-20T11:37:01.002Z,21.57
2018-11-20T11:38:01.292Z,21.56
2018-11-20T11:39:00.975Z,21.57
2018-11-20T11:40:00.989Z,21.60
2018-11-20T11:41:01.203Z,21.61
2018-11-20T11:42:00.943Z,21.53
2018-11-20T11:43:00.950Z,21.57
2018-11-20T11:44:00.962Z,21.56
2018-11-20T11:45:00.905Z,21.57
2018-11-20T11:46:00.894Z,21.60
2018-11-20T11:47:01.134Z,21.56
2018-11-20T11:48:01.137Z,21.59
2018-11-20T11:49:00.874Z,21.54
2018-11-20T11:50:00.870Z,21.59
2018-11-20T11:51:00.844Z,21.54
2018-11-20T11:52:00.840Z,21.53
2018-11-20T11:53:00.812Z,21.51
2018-11-20T11:54:00.804Z,21.53
2018-11-20T11:55:01.118Z,21.54
2018-11-20T11:56:01.041Z,21.53
2018-11-20T11:57:00.781Z,21.57
2018-11-20T11:58:00.763Z,21.56
2018-11-20T11:59:00.751Z,21.54
2018-11-20T12:00:00.778Z,21.57
2018-11-20T12:01:00.742Z,21.54
2018-11-20T12:04:00.695Z,21.56
2018-11-20T12:05:00.690Z,21.54
2018-11-20T12:06:00.689Z,21.59
2018-11-20T12:07:00.916Z,21.51
2018-11-20T12:08:00.664Z,21.56
2018-11-20T12:09:00.896Z,21.59
2018-11-20T12:10:00.675Z,21.59
2018-11-20T12:11:00.619Z,21.57
2018-11-20T12:12:00.603Z,21.57
2018-11-20T12:13:00.606Z,21.59
2018-11-20T12:14:00.589Z,21.56
2018-11-20T12:15:00.583Z,21.59
2018-11-20T12:16:01.160Z,21.59
2018-11-20T12:17:00.561Z,21.51
2018-11-20T12:18:00.567Z,21.59
2018-11-20T12:19:00.694Z,21.54
2018-11-20T12:20:00.523Z,21.53
2018-11-20T12:21:00.501Z,21.59
2018-11-20T12:22:00.754Z,21.56
2018-11-20T12:23:00.491Z,21.54
2018-11-20T12:24:01.524Z,21.60
2018-11-20T12:25:00.455Z,21.61
2018-11-20T12:26:00.460Z,21.54
2018-11-20T12:27:00.439Z,21.53
2018-11-20T12:28:00.699Z,21.63
2018-11-20T12:29:00.423Z,21.69
2018-11-20T12:30:00.445Z,21.67
2018-11-20T12:31:00.395Z,21.59
2018-11-20T12:32:00.388Z,21.56
2018-11-20T12:33:00.371Z,21.67
2018-11-20T12:34:00.369Z,21.61
2018-11-20T12:35:00.589Z,21.71
2018-11-20T12:36:00.332Z,21.72
2018-11-20T12:37:00.379Z,21.66
2018-11-20T12:38:01.154Z,21.71
2018-11-20T12:39:02.640Z,21.74
2018-11-20T12:40:00.547Z,21.71
2018-11-20T12:41:00.325Z,21.71
2018-11-20T12:42:00.276Z,21.67
2018-11-20T12:43:00.266Z,21.67
2018-11-20T12:44:01.507Z,21.66
2018-11-20T12:45:00.233Z,21.67
2018-11-20T12:46:00.239Z,21.60
2018-11-20T12:47:01.711Z,21.61
2018-11-20T12:48:01.753Z,21.61
2018-11-20T12:49:00.219Z,21.59
2018-11-20T12:50:00.211Z,21.56
2018-11-20T12:51:00.412Z,21.63
2018-11-20T12:52:00.161Z,21.60
2018-11-20T12:53:00.460Z,21.54
2018-11-20T12:54:00.167Z,21.54
2018-11-20T12:55:00.117Z,21.45
2018-11-20T12:56:00.140Z,21.35
2018-11-20T12:57:00.099Z,21.41
2018-11-20T12:58:00.094Z,21.41
2018-11-20T12:59:00.334Z,21.39
2018-11-20T13:00:00.109Z,21.36
2018-11-20T13:01:00.325Z,21.35
2018-11-20T13:02:00.043Z,21.32
2018-11-20T13:03:00.060Z,21.24
2018-11-20T13:04:00.041Z,21.20
2018-11-20T13:05:00.257Z,21.24
2018-11-20T13:05:59.996Z,21.21
2018-11-20T13:07:00.662Z,21.21
2018-11-20T13:08:00.655Z,21.24
2018-11-20T13:09:00.905Z,21.15
2018-11-20T13:10:00.905Z,21.15
2018-11-20T13:11:00.693Z,21.19
2018-11-20T13:12:00.179Z,21.08
2018-11-20T13:13:00.644Z,21.17
2018-11-20T13:14:00.170Z,21.05
2018-11-20T13:15:00.158Z,21.08
2018-11-20T13:15:59.892Z,21.00
2018-11-20T13:16:59.880Z,20.95
2018-11-20T13:18:00.151Z,20.92
2018-11-20T13:18:59.854Z,21.01
2018-11-20T13:20:00.443Z,20.95
2018-11-20T13:20:59.834Z,20.83
2018-11-20T13:22:00.081Z,20.82
2018-11-20T13:23:00.067Z,20.90
2018-11-20T13:23:59.809Z,20.86
2018-11-20T13:25:01.656Z,20.90
2018-11-20T13:26:00.877Z,20.86
2018-11-20T13:26:59.778Z,20.80
2018-11-20T13:27:59.755Z,20.86
2018-11-20T13:28:59.994Z,20.82
2018-11-20T13:29:59.731Z,20.83
2018-11-20T13:30:59.976Z,20.80
2018-11-20T13:31:59.711Z,20.85
2018-11-20T13:32:59.707Z,20.83
2018-11-20T13:33:59.698Z,20.90
2018-11-20T13:34:59.762Z,20.88
2018-11-20T13:35:59.683Z,20.88
2018-11-20T13:36:59.655Z,20.92
2018-11-20T13:38:00.894Z,20.94
2018-11-20T13:39:00.624Z,20.90
2018-11-20T13:39:59.622Z,20.97
2018-11-20T13:40:59.606Z,21.00
2018-11-20T13:42:00.346Z,20.92
2018-11-20T13:42:59.599Z,20.97
2018-11-20T13:43:59.849Z,20.92
2018-11-20T13:44:59.565Z,20.97
2018-11-20T13:45:59.568Z,20.92
2018-11-20T13:47:01.593Z,20.95
2018-11-20T13:47:59.780Z,20.95
2018-11-20T13:48:59.537Z,21.03
2018-11-20T13:49:59.766Z,21.03
2018-11-20T13:50:59.499Z,21.08
2018-11-20T13:51:59.486Z,20.90
2018-11-20T13:52:59.727Z,20.98
2018-11-20T13:53:59.459Z,20.97
2018-11-20T13:54:59.697Z,21.05
2018-11-20T13:55:59.695Z,20.89
2018-11-20T13:56:59.431Z,20.88
2018-11-20T13:57:59.452Z,20.94
2018-11-20T13:58:59.665Z,20.92
2018-11-20T14:00:01.546Z,20.94
2018-11-20T14:00:59.390Z,21.01
2018-11-20T14:01:59.372Z,20.97
2018-11-20T14:02:59.619Z,20.92
2018-11-20T14:03:59.348Z,20.95
2018-11-20T14:04:59.339Z,20.94
2018-11-20T14:05:59.326Z,20.92
2018-11-20T14:06:59.831Z,20.97
2018-11-20T14:07:59.305Z,20.90
2018-11-20T14:08:59.292Z,20.88
2018-11-20T14:09:59.283Z,20.89
2018-11-20T14:10:59.528Z,20.86
2018-11-20T14:11:59.266Z,20.86
2018-11-20T14:12:59.252Z,20.89
2018-11-20T14:13:59.242Z,20.89
2018-11-20T14:14:59.478Z,20.88
2018-11-20T14:15:59.211Z,20.88
2018-11-20T14:16:59.203Z,20.76
2018-11-20T14:17:59.239Z,20.80
2018-11-20T14:18:59.480Z,20.90
2018-11-20T14:19:59.170Z,20.83
2018-11-20T14:20:59.174Z,20.80
2018-11-20T14:21:59.427Z,20.76
2018-11-20T14:23:00.138Z,20.79
2018-11-20T14:23:59.130Z,20.75
2018-11-20T14:24:59.375Z,20.75
2018-11-20T14:25:59.107Z,20.76
2018-11-20T14:26:59.122Z,20.76
2018-11-20T14:27:59.081Z,20.76
2018-11-20T14:28:59.080Z,20.75
2018-11-20T14:29:59.063Z,20.79
2018-11-20T14:30:59.044Z,20.71
2018-11-20T14:31:59.041Z,20.70
2018-11-20T14:32:59.277Z,20.68
2018-11-20T14:33:59.013Z,20.71
2018-11-20T14:34:59.265Z,20.71
2018-11-20T14:35:58.988Z,20.65
2018-11-20T14:36:59.237Z,20.76
2018-11-20T14:37:58.979Z,20.71
2018-11-20T14:38:58.955Z,20.71
2018-11-20T14:39:58.947Z,20.70
2018-11-20T14:41:04.378Z,20.80
2018-11-20T14:41:59.183Z,20.73
2018-11-20T14:42:59.293Z,20.79
2018-11-20T14:43:59.189Z,20.79
2018-11-20T14:44:58.893Z,20.80
2018-11-20T14:45:58.889Z,20.76
2018-11-20T14:46:58.870Z,20.67
2018-11-20T14:47:58.857Z,20.83
2018-11-20T14:48:58.871Z,20.75
2018-11-20T14:49:59.336Z,20.76
2018-11-20T14:50:58.824Z,20.79
2018-11-20T14:51:58.812Z,20.70
2018-11-20T14:52:58.816Z,20.76
2018-11-20T14:53:58.802Z,20.75
2018-11-20T14:54:59.036Z,20.70
2018-11-20T14:55:58.767Z,20.79
2018-11-20T14:56:58.751Z,20.65
2018-11-20T14:57:58.993Z,20.76
2018-11-20T14:58:58.733Z,20.68
2018-11-20T14:59:58.715Z,20.67
2018-11-20T15:00:58.965Z,20.65
2018-11-20T15:01:58.955Z,20.63
2018-11-20T15:02:58.941Z,20.64
2018-11-20T15:03:58.696Z,20.61
2018-11-20T15:04:58.676Z,20.65
2018-11-20T15:05:58.653Z,20.61
2018-11-20T15:06:58.658Z,20.60
2018-11-20T15:07:59.323Z,20.63
2018-11-20T15:08:58.876Z,20.57
2018-11-20T15:09:58.605Z,20.55
2018-11-20T15:10:58.625Z,20.58
2018-11-20T15:11:58.588Z,20.57
2018-11-20T15:12:59.099Z,20.61
2018-11-20T15:13:58.562Z,20.57
2018-11-20T15:14:58.811Z,20.58
2018-11-20T15:15:58.544Z,20.57
2018-11-20T15:16:58.544Z,20.61
2018-11-20T15:17:58.528Z,20.61
2018-11-20T15:18:58.758Z,20.53
2018-11-20T15:19:58.743Z,20.53
2018-11-20T15:20:58.509Z,20.53
2018-11-20T15:21:58.718Z,20.46
2018-11-20T15:22:58.461Z,20.48
2018-11-20T15:23:58.466Z,20.50
2018-11-20T15:24:58.443Z,20.52
2018-11-20T15:26:03.982Z,20.50
2018-11-20T15:26:58.712Z,20.42
2018-11-20T15:27:58.427Z,20.49
2018-11-20T15:28:58.650Z,20.53
2018-11-20T15:29:58.389Z,20.49
2018-11-20T15:30:58.634Z,20.46
2018-11-20T15:31:58.364Z,20.49
2018-11-20T15:32:58.357Z,20.50
2018-11-20T15:33:58.639Z,20.41
2018-11-20T15:34:58.631Z,20.46
2018-11-20T15:35:58.315Z,20.50
2018-11-20T15:36:58.567Z,20.41
2018-11-20T15:37:58.304Z,20.50
2018-11-20T15:38:58.294Z,20.57
2018-11-20T15:39:58.519Z,20.43
2018-11-20T15:40:58.515Z,20.53
2018-11-20T15:41:58.524Z,20.45
2018-11-20T15:42:58.841Z,20.60
2018-11-20T15:43:58.261Z,20.58
2018-11-20T15:44:58.244Z,20.46
2018-11-20T15:45:58.240Z,20.43
2018-11-20T15:46:58.229Z,20.58
2018-11-20T15:47:58.719Z,20.48
2018-11-20T15:48:58.210Z,20.55
2018-11-20T15:49:58.193Z,20.55
2018-11-20T15:50:58.194Z,20.55
2018-11-20T15:51:58.163Z,20.50
2018-11-20T15:52:58.187Z,20.52
2018-11-20T15:54:58.135Z,20.50
2018-11-20T15:55:58.126Z,20.42
2018-11-20T15:56:58.632Z,20.52
2018-11-20T15:57:58.083Z,20.48
2018-11-20T16:41:57.582Z,20.55
2018-11-20T16:42:57.880Z,20.58
2018-11-20T16:43:57.845Z,20.50
2018-11-20T16:44:57.561Z,20.45
2018-11-20T16:45:57.532Z,20.50
2018-11-20T16:46:57.519Z,20.48
2018-11-20T16:47:57.596Z,20.50
2018-11-20T16:48:57.749Z,20.45
2018-11-20T16:49:57.502Z,20.49
2018-11-20T16:50:57.724Z,20.43
2018-11-20T16:51:57.462Z,20.46
2018-11-20T16:52:57.722Z,20.52
2018-11-20T16:53:57.451Z,20.46
2018-11-20T16:54:57.706Z,20.50
2018-11-20T16:55:57.420Z,20.58
2018-11-20T16:56:57.672Z,20.61
2018-11-20T16:57:57.404Z,20.63
2018-11-20T16:58:57.392Z,20.60
2018-11-20T16:59:57.382Z,20.64
2018-11-20T17:00:57.367Z,20.61
2018-11-20T17:01:57.632Z,20.60
2018-11-20T17:02:57.345Z,20.58
2018-11-20T17:03:57.699Z,20.64
2018-11-20T17:04:57.329Z,20.63
2018-11-20T17:05:57.305Z,20.64
2018-11-20T17:06:57.293Z,20.61
2018-11-20T17:07:57.323Z,20.61
2018-11-20T17:08:57.284Z,20.67
2018-11-20T17:09:57.519Z,20.67
2018-11-20T17:10:57.528Z,20.65
2018-11-20T17:11:57.245Z,20.68
2018-11-20T17:12:57.477Z,20.67
2018-11-20T17:13:57.471Z,20.65
2018-11-20T17:14:57.218Z,20.64
2018-11-20T17:15:57.198Z,20.68
2018-11-20T17:16:57.207Z,20.68
2018-11-20T17:17:57.177Z,20.73
2018-11-20T17:18:57.165Z,20.71
2018-11-20T17:19:57.496Z,20.75
2018-11-20T17:20:57.144Z,20.68
2018-11-20T17:21:57.128Z,20.73
2018-11-20T17:22:57.123Z,20.79
2018-11-20T17:23:57.383Z,20.78
2018-11-20T17:24:57.094Z,20.80
2018-11-20T17:25:57.376Z,20.76
2018-11-20T17:26:57.068Z,20.67
2018-11-20T17:27:57.317Z,20.82
2018-11-20T17:28:57.304Z,20.75
2018-11-20T17:29:57.052Z,20.75
2018-11-20T17:30:57.030Z,20.76
2018-11-20T17:31:57.273Z,20.80
2018-11-20T17:32:57.033Z,20.80
2018-11-20T17:33:56.993Z,20.76
2018-11-20T17:34:57.261Z,20.79
2018-11-20T17:35:57.230Z,20.82
2018-11-20T17:36:56.965Z,20.85
